Terminal Aerodrome Forecast
Issued by NWS

Home | Current Version | Previous Version | Text Only | Print | Product List | Glossary On
Versions: 1 2 3 4 5 6 7 8 9 10 11
000
FTUS42 TJSJ 212300 RRA
TAFJSJ
TAF
TJSJ 212340Z 2200/2224 07005KT P6SM FEW025
     FM221300 08012KT P6SM FEW025
     FM222300 09006KT P6SM FEW025=

USA.gov is the U.S. government's official web portal to all federal, state and local government web resources and services.